sensor_id;sensor_type;location;lat;lon;timestamp;pressure;altitude;pressure_sealevel;temperature;humidity
34197;BME280;36594;45.192;5.722;2023-03-13T00:00:24;99272.24;;;22.17;35.59
34197;BME280;36594;45.192;5.722;2023-03-13T00:03:13;99263.53;;;22.20;35.58
34197;BME280;36594;45.192;5.722;2023-03-13T00:06:01;99279.67;;;22.19;35.58
34197;BME280;36594;45.192;5.722;2023-03-13T00:08:49;99271.47;;;22.19;35.64
34197;BME280;36594;45.192;5.722;2023-03-13T00:11:38;99271.53;;;22.21;35.59
34197;BME280;36594;45.192;5.722;2023-03-13T00:14:27;99263.01;;;22.20;35.59
34197;BME280;36594;45.192;5.722;2023-03-13T00:17:15;99259.22;;;22.21;35.64
34197;BME280;36594;45.192;5.722;2023-03-13T00:20:04;99265.53;;;22.22;35.67
34197;BME280;36594;45.192;5.722;2023-03-13T00:22:53;99263.84;;;22.21;35.70
34197;BME280;36594;45.192;5.722;2023-03-13T00:25:42;99258.69;;;22.22;35.66
34197;BME280;36594;45.192;5.722;2023-03-13T00:28:32;99265.88;;;22.25;35.63
34197;BME280;36594;45.192;5.722;2023-03-13T00:31:26;99260.34;;;22.23;35.66
34197;BME280;36594;45.192;5.722;2023-03-13T00:34:15;99263.08;;;22.23;35.69
34197;BME280;36594;45.192;5.722;2023-03-13T00:37:03;99258.38;;;22.21;35.72
34197;BME280;36594;45.192;5.722;2023-03-13T00:39:52;99257.91;;;22.24;35.68
34197;BME280;36594;45.192;5.722;2023-03-13T00:42:40;99253.50;;;22.23;35.71
34197;BME280;36594;45.192;5.722;2023-03-13T00:45:29;99260.09;;;22.24;35.69
34197;BME280;36594;45.192;5.722;2023-03-13T00:48:19;99252.44;;;22.24;35.67
34197;BME280;36594;45.192;5.722;2023-03-13T00:51:09;99252.13;;;22.23;35.69
34197;BME280;36594;45.192;5.722;2023-03-13T00:53:58;99251.59;;;22.12;36.02
34197;BME280;36594;45.192;5.722;2023-03-13T00:56:47;99249.58;;;22.07;36.30
34197;BME280;36594;45.192;5.722;2023-03-13T00:59:35;99255.23;;;22.03;36.40
34197;BME280;36594;45.192;5.722;2023-03-13T01:02:24;99253.02;;;22.03;36.48
34197;BME280;36594;45.192;5.722;2023-03-13T01:05:13;99253.55;;;22.02;36.59
34197;BME280;36594;45.192;5.722;2023-03-13T01:08:01;99257.66;;;22.02;36.54
34197;BME280;36594;45.192;5.722;2023-03-13T01:10:56;99255.45;;;22.01;36.62
34197;BME280;36594;45.192;5.722;2023-03-13T01:13:41;99243.01;;;21.96;36.64
34197;BME280;36594;45.192;5.722;2023-03-13T01:16:32;99240.14;;;21.91;36.73
34197;BME280;36594;45.192;5.722;2023-03-13T01:19:21;99242.01;;;21.88;36.81
34197;BME280;36594;45.192;5.722;2023-03-13T01:22:10;99241.41;;;21.86;36.77
34197;BME280;36594;45.192;5.722;2023-03-13T01:24:59;99242.78;;;21.86;36.84
34197;BME280;36594;45.192;5.722;2023-03-13T01:27:47;99235.32;;;21.84;36.85
34197;BME280;36594;45.192;5.722;2023-03-13T01:30:36;99241.25;;;21.81;36.89
34197;BME280;36594;45.192;5.722;2023-03-13T01:33:24;99249.55;;;21.84;36.90
34197;BME280;36594;45.192;5.722;2023-03-13T01:36:13;99248.19;;;21.84;36.89
34197;BME280;36594;45.192;5.722;2023-03-13T01:39:03;99243.84;;;21.85;36.88
34197;BME280;36594;45.192;5.722;2023-03-13T01:41:52;99244.36;;;21.85;36.87
34197;BME280;36594;45.192;5.722;2023-03-13T01:44:55;99239.73;;;21.85;36.88
34197;BME280;36594;45.192;5.722;2023-03-13T01:47:45;99230.48;;;21.86;36.86
34197;BME280;36594;45.192;5.722;2023-03-13T01:50:35;99226.31;;;21.84;36.90
34197;BME280;36594;45.192;5.722;2023-03-13T01:53:26;99231.53;;;21.85;36.88
34197;BME280;36594;45.192;5.722;2023-03-13T01:56:31;99225.53;;;21.86;36.89
34197;BME280;36594;45.192;5.722;2023-03-13T01:59:16;99221.13;;;21.85;36.90
34197;BME280;36594;45.192;5.722;2023-03-13T02:02:05;99219.54;;;21.86;36.90
34197;BME280;36594;45.192;5.722;2023-03-13T02:04:57;99225.53;;;21.86;36.89
34197;BME280;36594;45.192;5.722;2023-03-13T02:07:58;99227.50;;;21.88;36.85
34197;BME280;36594;45.192;5.722;2023-03-13T02:11:01;99228.02;;;21.87;36.89
34197;BME280;36594;45.192;5.722;2023-03-13T02:13:46;99222.80;;;21.86;36.95
34197;BME280;36594;45.192;5.722;2023-03-13T02:16:36;99219.48;;;21.84;36.94
34197;BME280;36594;45.192;5.722;2023-03-13T02:19:39;99210.71;;;21.84;36.94
34197;BME280;36594;45.192;5.722;2023-03-13T02:28:34;99212.55;;;21.81;36.98
34197;BME280;36594;45.192;5.722;2023-03-13T02:31:12;99219.54;;;21.86;37.01
34197;BME280;36594;45.192;5.722;2023-03-13T02:34:01;99220.13;;;21.88;36.98
34197;BME280;36594;45.192;5.722;2023-03-13T02:36:51;99214.13;;;21.89;36.99
34197;BME280;36594;45.192;5.722;2023-03-13T02:39:42;99209.02;;;21.92;36.97
34197;BME280;36594;45.192;5.722;2023-03-13T02:42:32;99205.28;;;21.96;36.93
34197;BME280;36594;45.192;5.722;2023-03-13T02:45:22;99197.11;;;21.98;36.89
34197;BME280;36594;45.192;5.722;2023-03-13T02:48:11;99192.73;;;21.97;36.94
34197;BME280;36594;45.192;5.722;2023-03-13T02:51:02;99194.69;;;21.99;36.92
34197;BME280;36594;45.192;5.722;2023-03-13T02:53:53;99186.79;;;22.00;36.92
34197;BME280;36594;45.192;5.722;2023-03-13T02:56:46;99186.79;;;22.00;36.90
34197;BME280;36594;45.192;5.722;2023-03-13T02:59:35;99179.39;;;22.01;36.91
34197;BME280;36594;45.192;5.722;2023-03-13T03:02:24;99179.45;;;22.03;36.93
34197;BME280;36594;45.192;5.722;2023-03-13T03:05:14;99174.82;;;22.04;36.93
34197;BME280;36594;45.192;5.722;2023-03-13T03:08:03;99167.92;;;22.01;36.91
34197;BME280;36594;45.192;5.722;2023-03-13T03:10:51;99176.72;;;22.03;36.94
34197;BME280;36594;45.192;5.722;2023-03-13T03:13:41;99176.72;;;22.03;36.96
34197;BME280;36594;45.192;5.722;2023-03-13T03:16:30;99174.36;;;22.07;36.91
34197;BME280;36594;45.192;5.722;2023-03-13T03:19:18;99174.88;;;22.07;36.93
34197;BME280;36594;45.192;5.722;2023-03-13T03:22:07;99166.43;;;22.08;36.91
34197;BME280;36594;45.192;5.722;2023-03-13T03:24:55;99174.75;;;22.13;36.89
34197;BME280;36594;45.192;5.722;2023-03-13T03:27:44;99178.33;;;22.14;36.89
34197;BME280;36594;45.192;5.722;2023-03-13T03:30:33;99180.01;;;22.15;36.88
34197;BME280;36594;45.192;5.722;2023-03-13T03:33:22;99184.11;;;22.15;36.94
34197;BME280;36594;45.192;5.722;2023-03-13T03:36:17;99182.74;;;22.15;36.89
34197;BME280;36594;45.192;5.722;2023-03-13T03:39:05;99187.96;;;22.16;36.93
34197;BME280;36594;45.192;5.722;2023-03-13T03:41:54;99185.81;;;22.18;36.88
34197;BME280;36594;45.192;5.722;2023-03-13T03:44:43;99181.25;;;22.21;36.88
34197;BME280;36594;45.192;5.722;2023-03-13T03:47:32;99168.88;;;22.19;36.86
34197;BME280;36594;45.192;5.722;2023-03-13T03:50:21;99168.34;;;22.19;36.89
34197;BME280;36594;45.192;5.722;2023-03-13T03:53:11;99179.63;;;22.23;36.89
34197;BME280;36594;45.192;5.722;2023-03-13T03:56:01;99180.74;;;22.24;36.88
34197;BME280;36594;45.192;5.722;2023-03-13T03:58:50;99169.86;;;22.27;36.84
34197;BME280;36594;45.192;5.722;2023-03-13T04:01:46;99171.53;;;22.28;36.87
34197;BME280;36594;45.192;5.722;2023-03-13T04:04:37;99167.70;;;22.29;36.83
34197;BME280;36594;45.192;5.722;2023-03-13T04:07:27;99165.59;;;22.31;36.82
34197;BME280;36594;45.192;5.722;2023-03-13T04:10:16;99176.81;;;22.32;36.83
34197;BME280;36594;45.192;5.722;2023-03-13T04:13:05;99171.92;;;22.34;36.83
34197;BME280;36594;45.192;5.722;2023-03-13T04:15:54;99168.13;;;22.35;36.82
34197;BME280;36594;45.192;5.722;2023-03-13T04:18:42;99164.14;;;22.40;36.78
34197;BME280;36594;45.192;5.722;2023-03-13T04:21:32;99163.05;;;22.41;36.77
34197;BME280;36594;45.192;5.722;2023-03-13T04:24:25;99166.94;;;22.42;36.76
34197;BME280;36594;45.192;5.722;2023-03-13T04:27:15;99162.77;;;22.40;36.75
34197;BME280;36594;45.192;5.722;2023-03-13T04:30:06;99168.05;;;22.44;36.75
34197;BME280;36594;45.192;5.722;2023-03-13T04:33:13;99159.37;;;22.47;36.74
34197;BME280;36594;45.192;5.722;2023-03-13T04:36:03;99150.84;;;22.46;36.73
34197;BME280;36594;45.192;5.722;2023-03-13T04:39:06;99155.80;;;22.46;36.73
34197;BME280;36594;45.192;5.722;2023-03-13T04:41:59;99154.17;;;22.48;36.76
34197;BME280;36594;45.192;5.722;2023-03-13T04:44:49;99146.91;;;22.53;36.73
34197;BME280;36594;45.192;5.722;2023-03-13T04:47:55;99154.59;;;22.54;36.70
34197;BME280;36594;45.192;5.722;2023-03-13T04:51:04;99147.97;;;22.52;36.71
34197;BME280;36594;45.192;5.722;2023-03-13T04:54:04;99149.92;;;22.54;36.71
34197;BME280;36594;45.192;5.722;2023-03-13T04:56:57;99154.64;;;22.56;36.71
34197;BME280;36594;45.192;5.722;2023-03-13T04:59:50;99143.97;;;22.57;36.70
34197;BME280;36594;45.192;5.722;2023-03-13T05:02:43;99145.17;;;22.61;36.63
34197;BME280;36594;45.192;5.722;2023-03-13T05:05:34;99148.52;;;22.63;36.60
34197;BME280;36594;45.192;5.722;2023-03-13T05:08:40;99151.31;;;22.66;36.57
34197;BME280;36594;45.192;5.722;2023-03-13T05:11:30;99149.16;;;22.68;36.53
34197;BME280;36594;45.192;5.722;2023-03-13T05:14:29;99136.89;;;22.71;36.52
34197;BME280;36594;45.192;5.722;2023-03-13T05:17:26;99135.80;;;22.72;36.53
34197;BME280;36594;45.192;5.722;2023-03-13T05:20:16;99131.69;;;22.72;36.44
34197;BME280;36594;45.192;5.722;2023-03-13T05:23:06;99129.01;;;22.74;36.45
34197;BME280;36594;45.192;5.722;2023-03-13T05:25:56;99119.73;;;22.75;36.49
34197;BME280;36594;45.192;5.722;2023-03-13T05:28:55;99110.73;;;22.77;36.45
34197;BME280;36594;45.192;5.722;2023-03-13T05:31:51;99115.67;;;22.78;36.46
34197;BME280;36594;45.192;5.722;2023-03-13T05:34:57;99115.70;;;22.80;36.48
34197;BME280;36594;45.192;5.722;2023-03-13T05:37:50;99099.57;;;22.81;36.54
34197;BME280;36594;45.192;5.722;2023-03-13T05:40:48;99100.20;;;22.86;36.54
34197;BME280;36594;45.192;5.722;2023-03-13T05:43:55;99105.15;;;22.86;36.55
34197;BME280;36594;45.192;5.722;2023-03-13T05:47:00;99100.25;;;22.88;36.53
34197;BME280;36594;45.192;5.722;2023-03-13T05:49:53;99103.57;;;22.90;36.47
34197;BME280;36594;45.192;5.722;2023-03-13T05:52:59;99094.61;;;22.95;36.50
34197;BME280;36594;45.192;5.722;2023-03-13T05:55:49;99095.76;;;22.96;36.48
34197;BME280;36594;45.192;5.722;2023-03-13T05:58:41;99104.73;;;22.94;36.51
34197;BME280;36594;45.192;5.722;2023-03-13T06:01:49;99099.56;;;22.95;36.51
34197;BME280;36594;45.192;5.722;2023-03-13T06:04:39;99094.66;;;22.97;36.52
34197;BME280;36594;45.192;5.722;2023-03-13T06:07:28;99072.84;;;23.02;36.42
34197;BME280;36594;45.192;5.722;2023-03-13T06:10:17;99070.94;;;23.03;36.51
34197;BME280;36594;45.192;5.722;2023-03-13T06:13:06;99076.25;;;23.09;36.40
34197;BME280;36594;45.192;5.722;2023-03-13T06:15:56;99080.11;;;23.11;36.40
34197;BME280;36594;45.192;5.722;2023-03-13T06:18:52;99086.73;;;23.12;36.39
34197;BME280;36594;45.192;5.722;2023-03-13T06:21:41;99082.89;;;23.13;36.34
34197;BME280;36594;45.192;5.722;2023-03-13T06:24:30;99084.30;;;23.16;36.33
34197;BME280;36594;45.192;5.722;2023-03-13T06:27:19;99072.81;;;23.16;36.32
34197;BME280;36594;45.192;5.722;2023-03-13T06:30:09;99066.27;;;23.17;36.27
34197;BME280;36594;45.192;5.722;2023-03-13T06:32:58;99067.66;;;23.20;36.28
34197;BME280;36594;45.192;5.722;2023-03-13T06:35:46;99070.74;;;23.23;36.30
34197;BME280;36594;45.192;5.722;2023-03-13T06:38:34;99069.42;;;23.26;36.25
34197;BME280;36594;45.192;5.722;2023-03-13T06:41:23;99060.14;;;23.29;36.16
34197;BME280;36594;45.192;5.722;2023-03-13T06:44:11;99066.58;;;23.35;36.13
34197;BME280;36594;45.192;5.722;2023-03-13T06:46:59;99068.78;;;23.35;36.10
34197;BME280;36594;45.192;5.722;2023-03-13T06:49:47;99067.69;;;23.36;36.13
34197;BME280;36594;45.192;5.722;2023-03-13T06:52:36;99063.62;;;23.39;36.08
34197;BME280;36594;45.192;5.722;2023-03-13T06:55:25;99056.77;;;23.39;36.11
34197;BME280;36594;45.192;5.722;2023-03-13T06:58:14;99057.91;;;23.41;36.05
34197;BME280;36594;45.192;5.722;2023-03-13T07:01:07;99057.64;;;23.42;36.02
34197;BME280;36594;45.192;5.722;2023-03-13T07:03:56;99061.22;;;23.43;36.08
34197;BME280;36594;45.192;5.722;2023-03-13T07:06:44;99060.92;;;23.42;36.10
34197;BME280;36594;45.192;5.722;2023-03-13T07:09:32;99054.33;;;23.40;36.14
34197;BME280;36594;45.192;5.722;2023-03-13T07:12:20;99042.88;;;23.43;36.13
34197;BME280;36594;45.192;5.722;2023-03-13T07:15:10;99031.11;;;23.45;36.11
34197;BME280;36594;45.192;5.722;2023-03-13T07:17:58;99031.92;;;23.46;36.14
34197;BME280;36594;45.192;5.722;2023-03-13T07:20:51;99047.87;;;23.49;36.10
34197;BME280;36594;45.192;5.722;2023-03-13T07:23:41;99064.67;;;23.52;36.06
34197;BME280;36594;45.192;5.722;2023-03-13T07:26:29;99052.86;;;23.52;36.11
34197;BME280;36594;45.192;5.722;2023-03-13T07:29:18;99046.58;;;23.54;36.04
34197;BME280;36594;45.192;5.722;2023-03-13T07:32:07;99034.55;;;23.55;36.04
34197;BME280;36594;45.192;5.722;2023-03-13T07:34:55;99039.42;;;23.53;36.06
34197;BME280;36594;45.192;5.722;2023-03-13T07:37:43;99043.88;;;23.56;36.07
34197;BME280;36594;45.192;5.722;2023-03-13T07:40:32;99043.92;;;23.59;36.05
34197;BME280;36594;45.192;5.722;2023-03-13T07:43:20;99041.72;;;23.58;36.02
34197;BME280;36594;45.192;5.722;2023-03-13T07:46:11;99048.57;;;23.58;36.06
34197;BME280;36594;45.192;5.722;2023-03-13T07:49:00;99048.03;;;23.59;36.07
34197;BME280;36594;45.192;5.722;2023-03-13T07:51:49;99049.68;;;23.60;36.08
34197;BME280;36594;45.192;5.722;2023-03-13T07:54:37;99036.27;;;23.61;36.10
34197;BME280;36594;45.192;5.722;2023-03-13T07:57:26;99032.16;;;23.61;36.07
34197;BME280;36594;45.192;5.722;2023-03-13T08:00:15;99023.13;;;23.63;36.11
34197;BME280;36594;45.192;5.722;2023-03-13T08:03:04;99015.25;;;23.66;36.03
34197;BME280;36594;45.192;5.722;2023-03-13T08:06:02;99019.63;;;23.67;36.00
34197;BME280;36594;45.192;5.722;2023-03-13T08:08:50;99013.39;;;23.72;36.01
34197;BME280;36594;45.192;5.722;2023-03-13T08:11:39;99030.34;;;23.69;35.84
34197;BME280;36594;45.192;5.722;2023-03-13T08:14:30;99014.22;;;23.72;35.51
34197;BME280;36594;45.192;5.722;2023-03-13T08:17:18;99006.30;;;23.73;35.35
34197;BME280;36594;45.192;5.722;2023-03-13T08:20:08;99000.81;;;23.76;35.28
34197;BME280;36594;45.192;5.722;2023-03-13T08:22:57;98992.63;;;23.78;35.24
34197;BME280;36594;45.192;5.722;2023-03-13T08:25:45;98987.44;;;23.79;35.22
34197;BME280;36594;45.192;5.722;2023-03-13T08:28:34;98987.17;;;23.81;35.21
34197;BME280;36594;45.192;5.722;2023-03-13T08:31:25;98980.59;;;23.79;35.24
34197;BME280;36594;45.192;5.722;2023-03-13T08:34:16;98982.79;;;23.80;35.26
34197;BME280;36594;45.192;5.722;2023-03-13T08:37:05;98988.28;;;23.80;35.25
34197;BME280;36594;45.192;5.722;2023-03-13T08:39:53;98973.19;;;23.80;35.27
34197;BME280;36594;45.192;5.722;2023-03-13T08:42:43;98964.39;;;23.78;35.28
34197;BME280;36594;45.192;5.722;2023-03-13T08:45:31;98970.45;;;23.80;35.29
34197;BME280;36594;45.192;5.722;2023-03-13T08:48:20;98969.11;;;23.82;35.28
34197;BME280;36594;45.192;5.722;2023-03-13T08:51:10;98949.11;;;23.84;35.27
34197;BME280;36594;45.192;5.722;2023-03-13T08:54:00;98937.30;;;23.84;35.27
34197;BME280;36594;45.192;5.722;2023-03-13T08:56:49;98945.53;;;23.84;35.27
34197;BME280;36594;45.192;5.722;2023-03-13T08:59:38;98912.62;;;23.84;35.35
34197;BME280;36594;45.192;5.722;2023-03-13T09:02:26;98905.49;;;23.85;35.40
34197;BME280;36594;45.192;5.722;2023-03-13T09:05:15;98903.34;;;23.87;35.35
34197;BME280;36594;45.192;5.722;2023-03-13T09:08:03;98895.92;;;23.88;35.44
34197;BME280;36594;45.192;5.722;2023-03-13T09:11:03;98888.27;;;23.87;35.42
34197;BME280;36594;45.192;5.722;2023-03-13T09:13:53;98868.44;;;23.83;35.39
34197;BME280;36594;45.192;5.722;2023-03-13T09:16:42;98872.61;;;23.88;35.38
34197;BME280;36594;45.192;5.722;2023-03-13T09:19:32;98874.28;;;23.89;35.38
34197;BME280;36594;45.192;5.722;2023-03-13T09:22:20;98871.56;;;23.91;35.38
34197;BME280;36594;45.192;5.722;2023-03-13T09:25:10;98845.48;;;23.89;35.38
34197;BME280;36594;45.192;5.722;2023-03-13T09:27:58;98830.66;;;23.90;35.39
34197;BME280;36594;45.192;5.722;2023-03-13T09:30:46;98832.89;;;23.93;35.39
34197;BME280;36594;45.192;5.722;2023-03-13T09:33:36;98821.08;;;23.92;35.37
34197;BME280;36594;45.192;5.722;2023-03-13T09:36:27;98818.34;;;23.92;35.40
34197;BME280;36594;45.192;5.722;2023-03-13T09:39:16;98808.69;;;23.85;35.46
34197;BME280;36594;45.192;5.722;2023-03-13T09:45:16;98810.19;;;23.47;36.25
34197;BME280;36594;45.192;5.722;2023-03-13T09:48:01;98821.59;;;23.38;36.49
34197;BME280;36594;45.192;5.722;2023-03-13T09:51:10;98808.12;;;23.34;36.67
34197;BME280;36594;45.192;5.722;2023-03-13T09:54:00;98781.48;;;23.32;36.85
34197;BME280;36594;45.192;5.722;2023-03-13T09:56:56;98794.62;;;23.30;36.89
34197;BME280;36594;45.192;5.722;2023-03-13T09:59:48;98784.70;;;23.27;37.01
34197;BME280;36594;45.192;5.722;2023-03-13T10:02:38;98779.24;;;23.29;37.06
34197;BME280;36594;45.192;5.722;2023-03-13T10:05:28;98779.27;;;23.32;37.12
34197;BME280;36594;45.192;5.722;2023-03-13T10:08:21;98760.66;;;23.56;36.80
34197;BME280;36594;45.192;5.722;2023-03-13T10:11:13;98747.70;;;23.75;36.46
34197;BME280;36594;45.192;5.722;2023-03-13T10:14:05;98728.05;;;23.86;36.18
34197;BME280;36594;45.192;5.722;2023-03-13T10:16:59;98727.28;;;23.93;36.05
34197;BME280;36594;45.192;5.722;2023-03-13T10:19:50;98726.52;;;24.00;35.90
34197;BME280;36594;45.192;5.722;2023-03-13T10:22:37;98722.45;;;24.05;35.82
34197;BME280;36594;45.192;5.722;2023-03-13T10:25:35;98713.73;;;24.08;35.74
34197;BME280;36594;45.192;5.722;2023-03-13T10:28:25;98721.16;;;24.10;35.76
34197;BME280;36594;45.192;5.722;2023-03-13T10:31:17;98698.64;;;24.08;35.74
34197;BME280;36594;45.192;5.722;2023-03-13T10:34:12;98696.20;;;24.14;35.66
34197;BME280;36594;45.192;5.722;2023-03-13T10:37:01;98693.45;;;24.14;35.62
34197;BME280;36594;45.192;5.722;2023-03-13T10:39:51;98695.38;;;24.14;35.69
34197;BME280;36594;45.192;5.722;2023-03-13T10:42:42;98690.44;;;24.16;35.67
34197;BME280;36594;45.192;5.722;2023-03-13T10:45:34;98686.62;;;24.17;35.63
34197;BME280;36594;45.192;5.722;2023-03-13T10:48:26;98683.59;;;24.18;35.60
34197;BME280;36594;45.192;5.722;2023-03-13T10:51:23;98670.43;;;24.15;35.62
34197;BME280;36594;45.192;5.722;2023-03-13T10:54:23;98666.89;;;24.20;35.61
34197;BME280;36594;45.192;5.722;2023-03-13T10:57:26;98652.34;;;24.19;35.59
34197;BME280;36594;45.192;5.722;2023-03-13T11:00:34;98656.17;;;24.21;35.63
34197;BME280;36594;45.192;5.722;2023-03-13T11:03:28;98642.73;;;24.19;35.72
34197;BME280;36594;45.192;5.722;2023-03-13T11:09:20;98627.34;;;24.18;35.73
34197;BME280;36594;45.192;5.722;2023-03-13T11:12:16;98633.41;;;24.18;35.72
34197;BME280;36594;45.192;5.722;2023-03-13T11:15:05;98611.71;;;24.19;35.72
34197;BME280;36594;45.192;5.722;2023-03-13T11:19:09;98606.22;;;24.19;35.74
34197;BME280;36594;45.192;5.722;2023-03-13T11:21:04;98602.11;;;24.19;35.74
34197;BME280;36594;45.192;5.722;2023-03-13T11:23:57;98599.09;;;24.20;35.72
34197;BME280;36594;45.192;5.722;2023-03-13T11:26:59;98591.44;;;24.22;35.69
34197;BME280;36594;45.192;5.722;2023-03-13T11:33:04;98583.45;;;24.21;35.84
34197;BME280;36594;45.192;5.722;2023-03-13T11:36:00;98580.72;;;24.23;35.87
34197;BME280;36594;45.192;5.722;2023-03-13T11:42:06;98550.27;;;24.27;35.84
34197;BME280;36594;45.192;5.722;2023-03-13T11:54:20;98504.17;;;24.24;36.02
34197;BME280;36594;45.192;5.722;2023-03-13T11:57:07;98501.16;;;24.26;35.97
34197;BME280;36594;45.192;5.722;2023-03-13T12:03:22;98477.83;;;24.28;35.91
34197;BME280;36594;45.192;5.722;2023-03-13T12:09:15;98455.59;;;24.27;36.09
34197;BME280;36594;45.192;5.722;2023-03-13T12:15:18;98430.10;;;24.32;36.19
34197;BME280;36594;45.192;5.722;2023-03-13T12:18:34;98413.06;;;24.32;36.23
34197;BME280;36594;45.192;5.722;2023-03-13T12:21:35;98405.11;;;24.31;36.29
34197;BME280;36594;45.192;5.722;2023-03-13T12:24:36;98383.70;;;24.30;36.36
34197;BME280;36594;45.192;5.722;2023-03-13T12:27:26;98368.89;;;24.31;36.39
34197;BME280;36594;45.192;5.722;2023-03-13T12:33:34;98346.37;;;24.34;36.50
34197;BME280;36594;45.192;5.722;2023-03-13T12:36:27;98336.50;;;24.33;36.59
34197;BME280;36594;45.192;5.722;2023-03-13T12:39:34;98318.13;;;24.34;36.63
34197;BME280;36594;45.192;5.722;2023-03-13T12:45:35;98310.16;;;24.17;36.97
34197;BME280;36594;45.192;5.722;2023-03-13T12:48:35;98302.66;;;23.90;37.58
34197;BME280;36594;45.192;5.722;2023-03-13T12:54:43;98277.69;;;23.76;37.95
34197;BME280;36594;45.192;5.722;2023-03-13T13:00:30;98265.91;;;23.71;38.15
34197;BME280;36594;45.192;5.722;2023-03-13T13:06:24;98245.61;;;23.74;38.15
34197;BME280;36594;45.192;5.722;2023-03-13T13:09:24;98235.47;;;23.75;38.21
34197;BME280;36594;45.192;5.722;2023-03-13T13:12:24;98226.41;;;23.77;38.18
34197;BME280;36594;45.192;5.722;2023-03-13T13:15:27;98211.88;;;23.74;38.24
34197;BME280;36594;45.192;5.722;2023-03-13T13:18:28;98203.11;;;23.77;38.25
34197;BME280;36594;45.192;5.722;2023-03-13T13:21:22;98188.58;;;23.79;38.28
34197;BME280;36594;45.192;5.722;2023-03-13T13:24:50;98188.86;;;23.77;38.30
34197;BME280;36594;45.192;5.722;2023-03-13T13:30:33;98173.49;;;23.79;38.38
34197;BME280;36594;45.192;5.722;2023-03-13T13:39:31;98161.70;;;23.81;38.40
34197;BME280;36594;45.192;5.722;2023-03-13T13:45:31;98146.90;;;23.82;38.50
34197;BME280;36594;45.192;5.722;2023-03-13T13:48:31;98126.05;;;23.83;38.47
34197;BME280;36594;45.192;5.722;2023-03-13T13:51:23;98122.48;;;23.85;38.50
34197;BME280;36594;45.192;5.722;2023-03-13T13:57:11;98116.20;;;23.87;38.49
34197;BME280;36594;45.192;5.722;2023-03-13T14:00:22;98119.73;;;23.90;38.47
34197;BME280;36594;45.192;5.722;2023-03-13T14:03:50;98101.66;;;23.92;38.44
34197;BME280;36594;45.192;5.722;2023-03-13T14:06:17;98094.80;;;23.92;38.49
34197;BME280;36594;45.192;5.722;2023-03-13T14:12:35;98090.68;;;23.92;38.49
34197;BME280;36594;45.192;5.722;2023-03-13T14:15:29;98089.56;;;23.90;38.57
34197;BME280;36594;45.192;5.722;2023-03-13T14:18:23;98092.30;;;23.93;38.54
34197;BME280;36594;45.192;5.722;2023-03-13T14:21:12;98091.48;;;23.92;38.54
34197;BME280;36594;45.192;5.722;2023-03-13T14:24:00;98088.19;;;23.95;38.54
34197;BME280;36594;45.192;5.722;2023-03-13T14:26:50;98079.95;;;23.98;38.50
34197;BME280;36594;45.192;5.722;2023-03-13T14:29:38;98092.84;;;24.02;38.46
34197;BME280;36594;45.192;5.722;2023-03-13T14:32:27;98088.19;;;24.03;38.43
34197;BME280;36594;45.192;5.722;2023-03-13T14:35:18;98088.72;;;24.05;38.42
34197;BME280;36594;45.192;5.722;2023-03-13T14:38:19;98091.17;;;24.04;38.46
34197;BME280;36594;45.192;5.722;2023-03-13T14:41:20;98092.01;;;24.04;38.45
34197;BME280;36594;45.192;5.722;2023-03-13T14:44:25;98115.33;;;24.04;38.44
34197;BME280;36594;45.192;5.722;2023-03-13T14:47:26;98077.75;;;24.05;38.46
34197;BME280;36594;45.192;5.722;2023-03-13T14:50:17;98077.20;;;24.03;38.47
34197;BME280;36594;45.192;5.722;2023-03-13T14:53:18;98074.47;;;24.03;38.53
34197;BME280;36594;45.192;5.722;2023-03-13T14:56:17;98063.23;;;24.07;38.52
34197;BME280;36594;45.192;5.722;2023-03-13T14:59:23;98079.66;;;24.04;38.54
34197;BME280;36594;45.192;5.722;2023-03-13T15:02:30;98060.75;;;24.05;38.49
34197;BME280;36594;45.192;5.722;2023-03-13T15:05:32;98048.41;;;24.05;38.55
34197;BME280;36594;45.192;5.722;2023-03-13T15:08:22;98049.27;;;24.06;38.59
34197;BME280;36594;45.192;5.722;2023-03-13T15:11:29;98026.46;;;24.03;38.61
34197;BME280;36594;45.192;5.722;2023-03-13T15:14:35;98030.30;;;24.02;38.60
34197;BME280;36594;45.192;5.722;2023-03-13T15:17:26;98024.55;;;24.03;38.64
34197;BME280;36594;45.192;5.722;2023-03-13T15:20:16;98019.86;;;24.04;38.58
34197;BME280;36594;45.192;5.722;2023-03-13T15:23:08;98008.62;;;24.05;38.63
34197;BME280;36594;45.192;5.722;2023-03-13T15:25:56;98006.17;;;24.07;38.58
34197;BME280;36594;45.192;5.722;2023-03-13T15:28:44;98007.54;;;24.07;38.58
34197;BME280;36594;45.192;5.722;2023-03-13T15:31:34;98013.31;;;24.08;38.63
34197;BME280;36594;45.192;5.722;2023-03-13T15:34:23;97992.44;;;24.09;38.60
34197;BME280;36594;45.192;5.722;2023-03-13T15:37:12;97988.07;;;24.11;38.57
34197;BME280;36594;45.192;5.722;2023-03-13T15:40:00;97981.45;;;24.14;38.53
34197;BME280;36594;45.192;5.722;2023-03-13T15:42:51;97985.59;;;24.09;38.59
34197;BME280;36594;45.192;5.722;2023-03-13T15:45:41;97987.23;;;24.13;38.59
34197;BME280;36594;45.192;5.722;2023-03-13T15:48:30;97980.91;;;24.17;38.60
34197;BME280;36594;45.192;5.722;2023-03-13T15:51:19;97995.70;;;24.16;38.55
34197;BME280;36594;45.192;5.722;2023-03-13T15:54:07;97974.59;;;24.17;38.51
34197;BME280;36594;45.192;5.722;2023-03-13T15:56:55;97977.05;;;24.16;38.55
34197;BME280;36594;45.192;5.722;2023-03-13T15:59:44;97980.91;;;24.15;38.55
34197;BME280;36594;45.192;5.722;2023-03-13T16:02:33;97963.09;;;24.12;38.60
34197;BME280;36594;45.192;5.722;2023-03-13T16:05:21;97949.60;;;24.18;38.56
34197;BME280;36594;45.192;5.722;2023-03-13T16:08:15;97938.38;;;24.17;38.53
34197;BME280;36594;45.192;5.722;2023-03-13T16:11:05;97945.77;;;24.19;38.54
34197;BME280;36594;45.192;5.722;2023-03-13T16:13:53;97960.30;;;24.22;38.51
34197;BME280;36594;45.192;5.722;2023-03-13T16:16:42;97942.48;;;24.20;38.53
34197;BME280;36594;45.192;5.722;2023-03-13T16:19:31;97940.53;;;24.20;38.52
34197;BME280;36594;45.192;5.722;2023-03-13T16:22:20;97929.28;;;24.24;38.46